createdAt,value
2018-04-18T00:00:10.582Z,77.45
2018-04-18T00:01:16.097Z,77.45
2018-04-18T00:02:21.598Z,77.45
2018-04-18T00:03:27.113Z,77.55
2018-04-18T00:04:32.634Z,77.55
2018-04-18T00:05:38.141Z,77.08
2018-04-18T00:06:43.668Z,76.60
2018-04-18T00:07:49.169Z,76.60
2018-04-18T00:08:54.683Z,76.60
2018-04-18T00:10:00.197Z,76.79
2018-04-18T00:11:05.711Z,77.36
2018-04-18T00:12:11.244Z,77.45
2018-04-18T00:13:16.740Z,77.08
2018-04-18T00:14:22.245Z,77.36
2018-04-18T00:15:27.761Z,77.45
2018-04-18T00:16:33.278Z,77.17
2018-04-18T00:17:38.789Z,77.26
2018-04-18T00:18:44.298Z,77.23
2018-04-18T00:19:49.818Z,77.42
2018-04-18T00:20:55.327Z,77.80
2018-04-18T00:22:00.840Z,77.70
2018-04-18T00:23:06.357Z,77.70
2018-04-18T00:24:11.872Z,77.51
2018-04-18T00:25:17.390Z,78.09
2018-04-18T00:26:22.903Z,77.99
2018-04-18T00:27:28.409Z,78.09
2018-04-18T00:28:33.923Z,78.09
2018-04-18T00:29:39.433Z,77.89
2018-04-18T00:30:44.949Z,77.89
2018-04-18T00:31:50.463Z,78.28
2018-04-18T00:32:55.978Z,78.18
2018-04-18T00:34:01.488Z,78.28
2018-04-18T00:35:06.998Z,78.09
2018-04-18T00:36:12.522Z,78.09
2018-04-18T00:37:18.071Z,78.56
2018-04-18T00:38:23.551Z,78.56
2018-04-18T00:39:29.052Z,78.47
2018-04-18T00:40:34.579Z,78.56
2018-04-18T00:41:40.090Z,78.47
2018-04-18T00:42:45.598Z,78.47
2018-04-18T00:43:51.110Z,78.47
2018-04-18T00:44:56.623Z,78.56
2018-04-18T00:46:02.142Z,78.47
2018-04-18T00:47:07.647Z,78.47
2018-04-18T00:48:13.158Z,78.56
2018-04-18T00:49:18.670Z,78.47
2018-04-18T00:50:24.184Z,78.47
2018-04-18T00:51:29.711Z,78.47
2018-04-18T00:52:35.221Z,79.04
2018-04-18T00:53:40.729Z,78.28
2018-04-18T00:54:46.320Z,78.66
2018-04-18T00:55:51.752Z,78.47
2018-04-18T00:56:57.264Z,78.28
2018-04-18T00:58:02.828Z,78.18
2018-04-18T00:59:08.290Z,78.85
2018-04-18T01:00:13.803Z,78.81
2018-04-18T01:01:19.315Z,79.38
2018-04-18T01:02:24.858Z,79.28
2018-04-18T01:03:30.340Z,79.48
2018-04-18T01:04:35.862Z,79.28
2018-04-18T01:05:41.369Z,79.86
2018-04-18T01:06:46.892Z,79.67
2018-04-18T01:07:52.402Z,79.19
2018-04-18T01:08:57.903Z,79.38
2018-04-18T01:10:03.427Z,79.77
2018-04-18T01:11:08.935Z,79.38
2018-04-18T01:12:14.447Z,79.86
2018-04-18T01:13:19.965Z,79.96
2018-04-18T01:14:25.486Z,79.86
2018-04-18T01:15:30.983Z,79.57
2018-04-18T01:16:36.499Z,79.28
2018-04-18T01:17:42.009Z,79.28
2018-04-18T01:18:47.523Z,79.48
2018-04-18T01:19:53.037Z,79.19
2018-04-18T01:20:58.551Z,79.19
2018-04-18T01:22:04.061Z,78.91
2018-04-18T01:23:09.584Z,78.91
2018-04-18T01:24:15.090Z,79.28
2018-04-18T01:25:20.602Z,79.10
2018-04-18T01:26:26.114Z,79.10
2018-04-18T01:27:31.627Z,79.28
2018-04-18T01:28:37.139Z,79.48
2018-04-18T01:29:42.652Z,79.77
2018-04-18T01:30:48.171Z,79.77
2018-04-18T01:31:53.684Z,79.77
2018-04-18T01:32:59.198Z,79.57
2018-04-18T01:34:04.703Z,79.86
2018-04-18T01:35:10.213Z,79.57
2018-04-18T01:36:15.728Z,79.67
2018-04-18T01:37:21.241Z,80.15
2018-04-18T01:38:26.750Z,80.33
2018-04-18T01:39:32.268Z,79.96
2018-04-18T01:40:37.784Z,80.15
2018-04-18T01:41:43.290Z,80.53
2018-04-18T01:42:48.806Z,80.62
2018-04-18T01:43:54.319Z,80.62
2018-04-18T01:44:59.827Z,80.72
2018-04-18T01:46:05.340Z,80.43
2018-04-18T01:47:10.857Z,80.53
2018-04-18T01:48:16.371Z,80.62
2018-04-18T01:49:21.883Z,80.43
2018-04-18T01:50:27.403Z,80.53
2018-04-18T01:51:32.904Z,80.53
2018-04-18T01:52:38.425Z,80.24
2018-04-18T01:53:43.938Z,80.53
2018-04-18T01:54:49.451Z,80.43
2018-04-18T01:55:54.955Z,80.62
2018-04-18T01:57:00.466Z,80.24
2018-04-18T01:58:05.988Z,79.67
2018-04-18T01:59:11.494Z,80.11
2018-04-18T02:00:17.007Z,80.33
2018-04-18T02:01:22.522Z,80.62
2018-04-18T02:02:28.041Z,80.53
2018-04-18T02:03:33.541Z,80.15
2018-04-18T02:04:39.058Z,80.43
2018-04-18T02:05:44.581Z,80.62
2018-04-18T02:06:50.081Z,80.33
2018-04-18T02:07:55.593Z,80.53
2018-04-18T02:09:01.121Z,80.72
2018-04-18T02:10:06.630Z,80.68
2018-04-18T02:11:12.130Z,80.58
2018-04-18T02:12:17.646Z,80.68
2018-04-18T02:13:23.162Z,80.39
2018-04-18T02:14:28.670Z,80.30
2018-04-18T02:15:34.179Z,80.30
2018-04-18T02:16:39.697Z,80.96
2018-04-18T02:17:45.210Z,80.96
2018-04-18T02:18:50.720Z,81.25
2018-04-18T02:19:56.230Z,80.96
2018-04-18T02:21:01.745Z,80.68
2018-04-18T02:22:07.257Z,80.96
2018-04-18T02:23:12.768Z,81.06
2018-04-18T02:24:18.283Z,80.87
2018-04-18T02:25:23.795Z,80.49
2018-04-18T02:26:29.317Z,80.96
2018-04-18T02:27:34.821Z,81.06
2018-04-18T02:28:40.330Z,81.06
2018-04-18T02:29:45.844Z,81.35
2018-04-18T02:30:51.355Z,81.35
2018-04-18T02:31:56.867Z,81.25
2018-04-18T02:33:02.383Z,81.35
2018-04-18T02:34:07.900Z,81.73
2018-04-18T02:35:13.404Z,81.25
2018-04-18T02:36:18.941Z,81.82
2018-04-18T02:37:24.429Z,81.35
2018-04-18T02:38:29.958Z,81.25
2018-04-18T02:39:35.460Z,81.25
2018-04-18T02:40:40.970Z,81.15
2018-04-18T02:41:46.478Z,81.25
2018-04-18T02:42:51.999Z,81.15
2018-04-18T02:43:57.502Z,80.96
2018-04-18T02:45:03.015Z,80.96
2018-04-18T02:46:08.532Z,81.44
2018-04-18T02:47:14.046Z,81.35
2018-04-18T02:48:19.556Z,81.06
2018-04-18T02:49:25.067Z,81.54
2018-04-18T02:50:30.584Z,81.54
2018-04-18T02:51:36.101Z,81.54
2018-04-18T02:52:41.603Z,81.73
2018-04-18T02:53:47.120Z,81.82
2018-04-18T02:54:52.625Z,81.25
2018-04-18T02:55:58.140Z,80.96
2018-04-18T02:57:03.652Z,81.15
2018-04-18T02:58:09.168Z,81.54
2018-04-18T02:59:14.677Z,81.54
2018-04-18T03:00:20.197Z,81.15
2018-04-18T03:01:25.707Z,81.25
2018-04-18T03:02:31.223Z,81.25
2018-04-18T03:03:36.732Z,81.73
2018-04-18T03:04:42.244Z,81.73
2018-04-18T03:05:47.754Z,81.35
2018-04-18T03:06:53.267Z,81.44
2018-04-18T03:07:58.774Z,81.06
2018-04-18T03:09:04.288Z,80.68
2018-04-18T03:10:09.798Z,80.58
2018-04-18T03:11:15.311Z,80.68
2018-04-18T03:12:20.825Z,80.68
2018-04-18T03:13:26.337Z,80.49
2018-04-18T03:14:31.850Z,80.96
2018-04-18T03:15:37.366Z,80.96
2018-04-18T03:16:42.880Z,80.77
2018-04-18T03:17:48.386Z,80.77
2018-04-18T03:18:53.897Z,80.68
2018-04-18T03:19:59.415Z,80.96
2018-04-18T03:21:04.923Z,80.49
2018-04-18T03:22:10.434Z,80.58
2018-04-18T03:23:15.949Z,80.39
2018-04-18T03:24:21.457Z,80.49
2018-04-18T03:25:26.978Z,80.01
2018-04-18T03:26:32.497Z,80.20
2018-04-18T03:27:37.998Z,80.30
2018-04-18T03:28:43.508Z,80.68
2018-04-18T03:29:49.026Z,80.39
2018-04-18T03:30:54.539Z,80.87
2018-04-18T03:32:00.051Z,80.20
2018-04-18T03:33:05.560Z,80.11
2018-04-18T03:34:11.072Z,80.01
2018-04-18T03:35:16.592Z,80.11
2018-04-18T03:36:22.100Z,80.11
2018-04-18T03:37:27.606Z,79.53
2018-04-18T03:38:33.126Z,79.53
2018-04-18T03:39:38.638Z,79.91
2018-04-18T03:40:44.172Z,80.11
2018-04-18T03:41:49.660Z,80.11
2018-04-18T03:42:55.168Z,80.39
2018-04-18T03:44:00.681Z,80.58
2018-04-18T03:45:06.195Z,81.06
2018-04-18T03:46:11.711Z,80.87
2018-04-18T03:47:17.218Z,80.58
2018-04-18T03:48:22.737Z,81.06
2018-04-18T03:49:28.246Z,80.96
2018-04-18T03:50:33.759Z,81.06
2018-04-18T03:51:39.269Z,80.77
2018-04-18T03:52:44.787Z,80.96
2018-04-18T03:53:50.297Z,80.87
2018-04-18T03:54:55.807Z,80.39
2018-04-18T03:56:01.317Z,80.96
2018-04-18T03:57:06.830Z,80.77
2018-04-18T03:58:12.343Z,80.87
2018-04-18T03:59:17.886Z,80.87
2018-04-18T04:00:23.368Z,80.77
2018-04-18T04:01:28.882Z,80.68
2018-04-18T04:02:34.440Z,80.68
2018-04-18T04:03:39.907Z,80.87
2018-04-18T04:04:45.417Z,81.25
2018-04-18T04:05:50.928Z,80.49
2018-04-18T04:06:56.446Z,80.92
2018-04-18T04:08:01.958Z,80.49
2018-04-18T04:09:07.475Z,80.96
2018-04-18T04:10:12.976Z,81.02
2018-04-18T04:11:18.495Z,81.12
2018-04-18T04:12:24.008Z,80.96
2018-04-18T04:13:29.513Z,80.54
2018-04-18T04:14:35.024Z,81.40
2018-04-18T04:15:40.535Z,80.92
2018-04-18T04:16:46.048Z,80.92
2018-04-18T04:17:51.569Z,81.49
2018-04-18T04:18:57.077Z,81.21
2018-04-18T04:20:02.584Z,80.92
2018-04-18T04:21:08.097Z,81.59
2018-04-18T04:22:13.609Z,81.40
2018-04-18T04:23:19.120Z,81.21
2018-04-18T04:24:24.635Z,81.68
2018-04-18T04:25:30.147Z,81.68
2018-04-18T04:26:35.660Z,81.68
2018-04-18T04:27:41.167Z,82.07
2018-04-18T04:28:46.682Z,81.40
2018-04-18T04:29:52.276Z,81.88
2018-04-18T04:30:57.707Z,81.68
2018-04-18T04:32:03.224Z,81.68
2018-04-18T04:33:08.731Z,81.59
2018-04-18T04:34:14.242Z,81.49
2018-04-18T04:35:19.764Z,81.59
2018-04-18T04:36:25.298Z,81.59
2018-04-18T04:37:30.788Z,81.59
2018-04-18T04:38:36.296Z,81.78
2018-04-18T04:39:41.803Z,82.54
2018-04-18T04:40:47.318Z,82.45
2018-04-18T04:41:52.827Z,82.45
2018-04-18T04:42:58.337Z,82.35
2018-04-18T04:44:03.854Z,81.40
2018-04-18T04:45:09.369Z,81.68
2018-04-18T04:46:14.875Z,81.49
2018-04-18T04:47:20.388Z,81.97
2018-04-18T04:48:25.905Z,81.59
2018-04-18T04:49:31.411Z,82.26
2018-04-18T04:50:36.923Z,81.49
2018-04-18T04:51:42.439Z,81.68
2018-04-18T04:52:47.944Z,81.97
2018-04-18T04:53:53.461Z,81.40
2018-04-18T04:54:58.971Z,81.59
2018-04-18T04:56:04.493Z,81.59
2018-04-18T04:57:10.005Z,81.68
2018-04-18T04:58:15.508Z,81.68
2018-04-18T04:59:21.024Z,81.68
2018-04-18T05:00:26.532Z,81.68
2018-04-18T05:01:32.048Z,81.78
2018-04-18T05:02:37.563Z,81.68
2018-04-18T05:03:43.071Z,81.40
2018-04-18T05:04:48.588Z,81.30
2018-04-18T05:05:54.095Z,81.40
2018-04-18T05:06:59.601Z,82.54
2018-04-18T05:08:05.119Z,82.26
2018-04-18T05:09:10.641Z,82.45
2018-04-18T05:10:16.291Z,82.26
2018-04-18T05:11:21.652Z,82.17
2018-04-18T05:12:27.211Z,82.17
2018-04-18T05:13:32.695Z,82.26
2018-04-18T05:14:38.188Z,82.45
2018-04-18T05:15:43.761Z,82.35
2018-04-18T05:16:49.218Z,82.64
2018-04-18T05:17:54.741Z,82.26
2018-04-18T05:19:00.233Z,82.35
2018-04-18T05:20:05.758Z,82.07
2018-04-18T05:21:11.308Z,82.17
2018-04-18T05:22:16.771Z,82.26
2018-04-18T05:23:22.293Z,82.64
2018-04-18T05:24:27.794Z,82.54
2018-04-18T05:25:33.307Z,82.64
2018-04-18T05:26:38.823Z,82.83
2018-04-18T05:27:44.337Z,82.92
2018-04-18T05:28:49.844Z,82.92
2018-04-18T05:29:55.354Z,82.83
2018-04-18T05:31:00.872Z,82.83
2018-04-18T05:32:06.379Z,82.83
2018-04-18T05:33:11.889Z,82.54
2018-04-18T05:34:17.405Z,83.02
2018-04-18T05:35:22.932Z,82.64
2018-04-18T05:36:28.428Z,83.02
2018-04-18T05:37:33.938Z,83.16
2018-04-18T05:38:39.449Z,82.59
2018-04-18T05:39:44.973Z,82.87
2018-04-18T05:40:50.483Z,82.49
2018-04-18T05:41:55.985Z,82.97
2018-04-18T05:43:01.505Z,82.59
2018-04-18T05:44:07.011Z,82.87
2018-04-18T05:45:12.558Z,82.87
2018-04-18T05:46:18.045Z,83.16
2018-04-18T05:47:23.550Z,82.97
2018-04-18T05:48:29.082Z,82.97
2018-04-18T05:49:34.568Z,83.35
2018-04-18T05:50:40.088Z,83.54
2018-04-18T05:51:45.600Z,83.35
2018-04-18T05:52:51.126Z,83.25
2018-04-18T05:53:56.646Z,83.25
2018-04-18T05:55:02.139Z,83.54
2018-04-18T05:56:07.655Z,83.25
2018-04-18T05:57:13.157Z,83.16
2018-04-18T05:58:18.670Z,83.48
2018-04-18T05:59:24.194Z,82.91
2018-04-18T06:00:29.692Z,83.11
2018-04-18T06:01:35.209Z,83.01
2018-04-18T06:02:40.717Z,83.29
2018-04-18T06:03:46.235Z,82.91
2018-04-18T06:04:51.834Z,82.91
2018-04-18T06:05:57.255Z,82.82
2018-04-18T06:07:02.769Z,83.29
2018-04-18T06:08:08.288Z,83.20
2018-04-18T06:09:13.797Z,82.63
2018-04-18T06:10:19.309Z,82.43
2018-04-18T06:11:24.819Z,82.34
2018-04-18T06:12:30.337Z,82.34
2018-04-18T06:13:35.852Z,82.24
2018-04-18T06:14:41.360Z,82.57
2018-04-18T06:15:46.868Z,82.38
2018-04-18T06:16:52.382Z,82.48
2018-04-18T06:17:57.895Z,81.81
2018-04-18T06:19:03.415Z,82.38
2018-04-18T06:20:08.924Z,82.29
2018-04-18T06:21:14.434Z,82.38
2018-04-18T06:22:19.951Z,82.29
2018-04-18T06:23:25.469Z,82.57
2018-04-18T06:24:30.980Z,82.38
2018-04-18T06:25:36.486Z,82.57
2018-04-18T06:26:41.998Z,82.42
2018-04-18T06:27:47.508Z,82.52
2018-04-18T06:28:53.028Z,82.32
2018-04-18T06:29:58.539Z,82.61
2018-04-18T06:31:04.050Z,82.71
2018-04-18T06:32:09.560Z,82.61
2018-04-18T06:33:15.081Z,82.04
2018-04-18T06:34:20.589Z,81.85
2018-04-18T06:35:26.196Z,81.95
2018-04-18T06:36:31.619Z,81.76
2018-04-18T06:37:37.136Z,81.66
2018-04-18T06:38:42.640Z,81.85
2018-04-18T06:39:48.152Z,81.79
2018-04-18T06:40:53.672Z,81.89
2018-04-18T06:41:59.180Z,81.79
2018-04-18T06:43:04.700Z,81.60
2018-04-18T06:44:10.215Z,81.41
2018-04-18T06:45:15.718Z,81.70
2018-04-18T06:46:21.234Z,81.32
2018-04-18T06:47:26.749Z,81.13
2018-04-18T06:48:32.259Z,80.84
2018-04-18T06:49:37.775Z,80.65
2018-04-18T06:50:43.290Z,80.50
2018-04-18T06:51:48.802Z,79.73
2018-04-18T06:52:54.315Z,79.64
2018-04-18T06:53:59.827Z,79.93
2018-04-18T06:55:05.338Z,79.73
2018-04-18T06:56:10.870Z,79.73
2018-04-18T06:57:16.369Z,79.93
2018-04-18T06:58:21.907Z,80.02
2018-04-18T06:59:27.401Z,79.93
2018-04-18T07:00:32.926Z,79.93
2018-04-18T07:01:38.430Z,80.02
2018-04-18T07:02:43.940Z,79.93
2018-04-18T07:03:49.530Z,79.77
2018-04-18T07:04:54.966Z,79.77
2018-04-18T07:06:00.478Z,79.77
2018-04-18T07:07:06.040Z,79.58
2018-04-18T07:08:11.534Z,79.39
2018-04-18T07:09:17.026Z,79.29
2018-04-18T07:10:22.549Z,79.10
2018-04-18T07:11:28.050Z,78.43
2018-04-18T07:12:33.576Z,79.20
2018-04-18T07:13:39.080Z,78.66
2018-04-18T07:14:44.597Z,78.47
2018-04-18T07:15:50.106Z,78.19
2018-04-18T07:16:55.633Z,77.61
2018-04-18T07:18:01.141Z,76.84
2018-04-18T07:19:06.732Z,76.56
2018-04-18T07:20:12.170Z,76.50
2018-04-18T07:21:17.678Z,75.83
2018-04-18T07:22:23.197Z,75.73
2018-04-18T07:23:28.710Z,75.07
2018-04-18T07:24:34.232Z,76.02
2018-04-18T07:25:39.743Z,75.96
2018-04-18T07:26:45.258Z,75.58
2018-04-18T07:27:50.766Z,76.25
2018-04-18T07:28:56.283Z,76.25
2018-04-18T07:30:01.808Z,75.58
2018-04-18T07:31:07.311Z,75.68
2018-04-18T07:32:12.883Z,75.10
2018-04-18T07:33:18.341Z,75.29
2018-04-18T07:34:23.959Z,75.23
2018-04-18T07:35:29.370Z,75.52
2018-04-18T07:36:34.889Z,74.85
2018-04-18T07:37:40.449Z,73.61
2018-04-18T07:38:45.920Z,72.07
2018-04-18T07:39:51.435Z,72.11
2018-04-18T07:40:56.961Z,72.11
2018-04-18T07:42:02.468Z,72.20
2018-04-18T07:43:07.978Z,71.72
2018-04-18T07:44:13.492Z,71.63
2018-04-18T07:45:19.005Z,71.09
2018-04-18T07:46:24.524Z,70.96
2018-04-18T07:47:30.051Z,71.28
2018-04-18T07:48:35.564Z,71.09
2018-04-18T07:49:41.069Z,70.61
2018-04-18T07:50:46.590Z,70.42
2018-04-18T07:51:52.108Z,70.07
2018-04-18T07:52:57.650Z,69.87
2018-04-18T07:54:03.139Z,68.82
2018-04-18T07:55:08.653Z,68.24
2018-04-18T07:56:14.161Z,68.53
2018-04-18T07:57:19.680Z,68.15
2018-04-18T07:58:25.200Z,67.29
2018-04-18T07:59:30.716Z,65.94
2018-04-18T08:00:36.226Z,65.78
2018-04-18T08:01:41.752Z,65.49
2018-04-18T08:02:47.270Z,64.72
2018-04-18T08:03:52.777Z,64.34
2018-04-18T08:04:58.300Z,63.96
2018-04-18T08:06:03.807Z,63.09
2018-04-18T08:07:09.488Z,63.48
2018-04-18T08:08:14.841Z,64.28
2018-04-18T08:09:20.362Z,63.60
2018-04-18T08:10:25.880Z,63.41
2018-04-18T08:11:31.388Z,63.89
2018-04-18T08:12:36.908Z,63.41
2018-04-18T08:13:42.439Z,63.02
2018-04-18T08:14:47.950Z,62.55
2018-04-18T08:15:53.469Z,62.64
2018-04-18T08:16:58.973Z,62.10
2018-04-18T08:18:04.490Z,62.29
2018-04-18T08:19:10.014Z,62.29
2018-04-18T08:20:15.525Z,62.19
2018-04-18T08:21:21.044Z,61.43
2018-04-18T08:22:26.556Z,61.71
2018-04-18T08:23:32.079Z,61.26
2018-04-18T08:24:37.591Z,61.16
2018-04-18T08:25:43.151Z,59.92
2018-04-18T08:26:48.625Z,59.34
2018-04-18T08:27:54.144Z,58.95
2018-04-18T08:28:59.661Z,58.37
2018-04-18T08:30:05.175Z,58.67
2018-04-18T08:31:10.697Z,58.09
2018-04-18T08:32:16.211Z,57.80
2018-04-18T08:33:21.731Z,57.51
2018-04-18T08:34:27.253Z,57.32
2018-04-18T08:35:32.773Z,56.96
2018-04-18T08:36:38.281Z,56.87
2018-04-18T08:37:43.799Z,57.45
2018-04-18T08:38:49.320Z,59.08
2018-04-18T08:39:54.836Z,58.12
2018-04-18T08:41:00.347Z,58.02
2018-04-18T08:42:05.867Z,59.17
2018-04-18T08:43:11.395Z,57.54
2018-04-18T08:44:16.905Z,57.09
2018-04-18T08:45:22.430Z,57.47
2018-04-18T08:46:27.942Z,57.37
2018-04-18T08:47:33.453Z,57.37
2018-04-18T08:48:38.974Z,56.70
2018-04-18T08:49:44.490Z,57.18
2018-04-18T08:50:50.018Z,57.40
2018-04-18T08:51:55.527Z,56.70
2018-04-18T08:53:01.046Z,56.92
2018-04-18T08:54:06.559Z,55.67
2018-04-18T08:55:12.076Z,55.67
2018-04-18T08:56:17.602Z,54.90
2018-04-18T08:57:23.113Z,54.80
2018-04-18T08:58:28.633Z,54.90
2018-04-18T08:59:34.150Z,54.13
2018-04-18T09:00:39.668Z,54.22
2018-04-18T09:01:45.187Z,53.74
2018-04-18T09:02:50.713Z,54.06
2018-04-18T09:03:56.221Z,53.48
2018-04-18T09:05:01.746Z,53.19
2018-04-18T09:06:07.257Z,54.06
2018-04-18T09:07:12.790Z,52.81
2018-04-18T09:08:18.296Z,52.61
2018-04-18T09:09:23.809Z,53.09
2018-04-18T09:10:29.333Z,51.94
2018-04-18T09:11:34.847Z,52.04
2018-04-18T09:12:40.368Z,51.94
2018-04-18T09:13:45.882Z,52.13
2018-04-18T09:14:51.411Z,52.61
2018-04-18T09:15:56.924Z,52.64
2018-04-18T09:17:02.454Z,52.64
2018-04-18T09:18:07.968Z,51.20
2018-04-18T09:19:13.480Z,50.71
2018-04-18T09:20:19.001Z,50.90
2018-04-18T09:21:24.523Z,51.00
2018-04-18T09:22:30.036Z,51.68
2018-04-18T09:23:35.551Z,51.77
2018-04-18T09:24:41.069Z,50.84
2018-04-18T09:25:46.589Z,51.70
2018-04-18T09:26:52.108Z,50.84
2018-04-18T09:27:57.622Z,50.26
2018-04-18T09:29:03.142Z,50.84
2018-04-18T09:30:08.668Z,50.93
2018-04-18T09:31:14.178Z,50.64
2018-04-18T09:32:19.701Z,50.06
2018-04-18T09:33:25.218Z,50.06
2018-04-18T09:34:30.738Z,49.77
2018-04-18T09:35:36.258Z,49.51
2018-04-18T09:36:41.785Z,48.64
2018-04-18T09:37:47.398Z,48.74
2018-04-18T09:38:52.809Z,49.02
2018-04-18T09:39:58.329Z,49.41
2018-04-18T09:41:03.847Z,48.44
2018-04-18T09:42:09.369Z,49.99
2018-04-18T09:43:14.890Z,49.99
2018-04-18T09:44:20.409Z,48.35
2018-04-18T09:45:25.931Z,48.25
2018-04-18T09:46:31.445Z,48.64
2018-04-18T09:47:36.967Z,49.51
2018-04-18T09:48:42.490Z,49.32
2018-04-18T09:49:48.004Z,49.92
2018-04-18T09:50:53.537Z,50.11
2018-04-18T09:51:59.040Z,49.44
2018-04-18T09:53:04.564Z,48.76
2018-04-18T09:54:10.079Z,48.08
2018-04-18T09:55:15.598Z,48.18
2018-04-18T09:56:21.123Z,47.99
2018-04-18T09:57:26.636Z,47.60
2018-04-18T09:58:32.227Z,47.70
2018-04-18T09:59:37.680Z,48.95
2018-04-18T10:00:43.192Z,49.37
2018-04-18T10:01:48.716Z,49.27
2018-04-18T10:02:54.235Z,48.88
2018-04-18T10:03:59.753Z,48.59
2018-04-18T10:05:05.278Z,48.97
2018-04-18T10:06:10.796Z,48.69
2018-04-18T10:07:16.322Z,47.81
2018-04-18T10:08:21.827Z,47.05
2018-04-18T10:09:27.345Z,47.24
2018-04-18T10:10:32.874Z,47.24
2018-04-18T10:11:38.389Z,46.85
2018-04-18T10:12:43.908Z,46.75
2018-04-18T10:13:49.431Z,46.78
2018-04-18T10:14:54.946Z,46.56
2018-04-18T10:16:00.483Z,46.78
2018-04-18T10:17:05.991Z,46.78
2018-04-18T10:18:11.509Z,48.03
2018-04-18T10:19:17.039Z,46.68
2018-04-18T10:20:22.548Z,46.20
2018-04-18T10:21:28.070Z,46.39
2018-04-18T10:22:33.606Z,46.30
2018-04-18T10:23:39.103Z,45.72
2018-04-18T10:24:44.624Z,45.52
2018-04-18T10:25:50.144Z,45.72
2018-04-18T10:26:55.672Z,46.51
2018-04-18T10:28:01.184Z,46.80
2018-04-18T10:29:06.703Z,46.12
2018-04-18T10:30:12.222Z,45.54
2018-04-18T10:31:17.750Z,45.35
2018-04-18T10:32:23.291Z,44.48
2018-04-18T10:33:28.780Z,44.77
2018-04-18T10:34:34.298Z,44.87
2018-04-18T10:35:39.953Z,44.70
2018-04-18T10:36:45.338Z,44.50
2018-04-18T10:37:50.901Z,45.08
2018-04-18T10:38:56.384Z,46.44
2018-04-18T10:40:01.913Z,45.86
2018-04-18T10:41:07.468Z,45.57
2018-04-18T10:42:12.939Z,46.25
2018-04-18T10:43:18.493Z,45.98
2018-04-18T10:44:23.989Z,44.72
2018-04-18T10:45:29.508Z,43.07
2018-04-18T10:46:35.021Z,43.95
2018-04-18T10:47:40.547Z,44.53
2018-04-18T10:48:46.060Z,44.62
2018-04-18T10:49:51.591Z,44.72
2018-04-18T10:50:57.101Z,45.10
2018-04-18T10:52:02.626Z,45.01
2018-04-18T10:53:08.149Z,45.88
2018-04-18T10:54:13.665Z,46.29
2018-04-18T10:55:19.183Z,45.22
2018-04-18T10:56:24.722Z,44.35
2018-04-18T10:57:30.225Z,43.38
2018-04-18T10:58:35.822Z,43.58
2018-04-18T10:59:41.264Z,42.90
2018-04-18T11:00:46.787Z,42.41
2018-04-18T11:01:52.315Z,42.44
2018-04-18T11:02:57.826Z,41.55
2018-04-18T11:04:03.351Z,40.79
2018-04-18T11:05:08.880Z,41.17
2018-04-18T11:06:14.388Z,41.66
2018-04-18T11:07:19.921Z,42.34
2018-04-18T11:08:25.445Z,42.92
2018-04-18T11:09:30.970Z,41.86
2018-04-18T11:10:36.475Z,41.66
2018-04-18T11:11:41.998Z,41.86
2018-04-18T11:12:47.519Z,41.95
2018-04-18T11:13:53.035Z,42.44
2018-04-18T11:14:58.552Z,42.05
2018-04-18T11:16:04.084Z,43.50
2018-04-18T11:17:09.595Z,40.89
2018-04-18T11:18:15.127Z,40.71
2018-04-18T11:19:20.637Z,40.61
2018-04-18T11:20:26.155Z,40.89
2018-04-18T11:21:31.676Z,41.37
2018-04-18T11:22:37.197Z,40.52
2018-04-18T11:23:42.718Z,40.03
2018-04-18T11:24:48.249Z,40.23
2018-04-18T11:25:53.770Z,40.13
2018-04-18T11:26:59.304Z,39.84
2018-04-18T11:28:04.805Z,40.03
2018-04-18T11:29:10.328Z,40.03
2018-04-18T11:30:15.848Z,40.52
2018-04-18T11:31:21.367Z,40.33
2018-04-18T11:32:26.890Z,39.26
2018-04-18T11:33:32.408Z,40.03
2018-04-18T11:34:37.937Z,40.33
2018-04-18T11:35:43.452Z,40.13
2018-04-18T11:36:48.976Z,40.61
2018-04-18T11:37:54.497Z,40.52
2018-04-18T11:39:00.024Z,39.84
2018-04-18T11:40:05.538Z,40.83
2018-04-18T11:41:11.057Z,40.54
2018-04-18T11:42:16.578Z,40.73
2018-04-18T11:43:22.098Z,40.44
2018-04-18T11:44:27.620Z,39.57
2018-04-18T11:45:33.191Z,39.18
2018-04-18T11:46:38.665Z,39.47
2018-04-18T11:47:44.182Z,38.50
2018-04-18T11:48:49.726Z,38.89
2018-04-18T11:49:55.225Z,39.18
2018-04-18T11:51:00.748Z,39.67
2018-04-18T11:52:06.268Z,39.57
2018-04-18T11:53:11.790Z,39.69
2018-04-18T11:54:17.310Z,38.32
2018-04-18T11:55:22.847Z,38.71
2018-04-18T11:56:28.362Z,37.65
2018-04-18T11:57:33.897Z,37.94
2018-04-18T11:58:39.397Z,39.39
2018-04-18T11:59:44.919Z,40.00
2018-04-18T12:00:50.437Z,39.90
2018-04-18T12:01:55.964Z,39.61
2018-04-18T12:03:01.485Z,37.96
2018-04-18T12:04:07.007Z,38.44
2018-04-18T12:05:12.532Z,37.86
2018-04-18T12:06:18.054Z,36.79
2018-04-18T12:07:23.567Z,37.66
2018-04-18T12:08:29.089Z,37.10
2018-04-18T12:09:34.619Z,36.69
2018-04-18T12:10:40.144Z,36.60
2018-04-18T12:11:45.656Z,37.08
2018-04-18T12:12:51.178Z,37.68
2018-04-18T12:13:56.698Z,36.42
2018-04-18T12:15:02.225Z,36.71
2018-04-18T12:16:07.749Z,35.72
2018-04-18T12:17:13.280Z,36.71
2018-04-18T12:18:18.787Z,36.89
2018-04-18T12:19:24.313Z,36.61
2018-04-18T12:20:29.837Z,37.30
2018-04-18T12:21:35.354Z,36.91
2018-04-18T12:22:40.881Z,37.59
2018-04-18T12:23:46.394Z,36.32
2018-04-18T12:24:51.924Z,37.78
2018-04-18T12:25:57.443Z,38.56
2018-04-18T12:27:02.962Z,38.65
2018-04-18T12:28:08.486Z,37.59
2018-04-18T12:29:14.002Z,36.71
2018-04-18T12:30:19.528Z,35.64
2018-04-18T12:31:25.060Z,36.73
2018-04-18T12:32:30.578Z,36.63
2018-04-18T12:33:36.113Z,37.41
2018-04-18T12:34:41.629Z,37.41
2018-04-18T12:35:47.139Z,36.54
2018-04-18T12:36:52.661Z,37.41
2018-04-18T12:37:58.238Z,35.57
2018-04-18T12:39:03.702Z,36.24
2018-04-18T12:40:09.228Z,35.66
2018-04-18T12:41:14.787Z,35.27
2018-04-18T12:42:20.278Z,35.08
2018-04-18T12:43:25.793Z,36.63
2018-04-18T12:44:31.314Z,35.66
2018-04-18T12:45:36.841Z,35.66
2018-04-18T12:46:42.360Z,35.86
2018-04-18T12:47:47.880Z,35.66
2018-04-18T12:48:53.406Z,35.57
2018-04-18T12:49:58.930Z,35.58
2018-04-18T12:51:04.456Z,35.00
2018-04-18T12:52:09.968Z,35.10
2018-04-18T12:53:15.505Z,34.61
2018-04-18T12:54:21.026Z,35.10
2018-04-18T12:55:26.544Z,35.68
2018-04-18T12:56:32.057Z,35.39
2018-04-18T12:57:37.641Z,35.68
2018-04-18T12:58:43.100Z,35.78
2018-04-18T12:59:48.631Z,34.80
2018-04-18T13:00:54.149Z,35.19
2018-04-18T13:01:59.668Z,33.81
2018-04-18T13:03:05.207Z,34.20
2018-04-18T13:04:10.724Z,33.72
2018-04-18T13:05:16.244Z,34.88
2018-04-18T13:06:21.762Z,35.08
2018-04-18T13:07:27.290Z,34.98
2018-04-18T13:08:32.807Z,35.66
2018-04-18T13:09:38.324Z,35.68
2018-04-18T13:10:43.875Z,34.88
2018-04-18T13:11:49.379Z,35.08
2018-04-18T13:12:54.898Z,35.68
2018-04-18T13:14:00.413Z,35.49
2018-04-18T13:15:05.936Z,34.70
2018-04-18T13:16:11.464Z,34.22
2018-04-18T13:17:16.990Z,34.70
2018-04-18T13:18:22.565Z,35.19
2018-04-18T13:19:28.027Z,34.90
2018-04-18T13:20:33.555Z,35.58
2018-04-18T13:21:39.075Z,35.00
2018-04-18T13:22:44.604Z,34.80
2018-04-18T13:23:50.117Z,34.42
2018-04-18T13:24:55.643Z,35.19
2018-04-18T13:26:01.233Z,34.52
2018-04-18T13:27:06.691Z,34.22
2018-04-18T13:28:12.215Z,34.80
2018-04-18T13:29:17.745Z,34.24
2018-04-18T13:30:23.253Z,33.46
2018-04-18T13:31:28.778Z,33.46
2018-04-18T13:32:34.300Z,32.97
2018-04-18T13:33:39.828Z,32.68
2018-04-18T13:34:45.343Z,32.97
2018-04-18T13:35:50.867Z,32.59
2018-04-18T13:36:56.392Z,33.07
2018-04-18T13:38:01.906Z,33.56
2018-04-18T13:39:07.436Z,32.87
2018-04-18T13:40:12.951Z,32.21
2018-04-18T13:41:18.475Z,32.11
2018-04-18T13:42:23.998Z,32.70
2018-04-18T13:43:29.527Z,32.99
2018-04-18T13:44:35.048Z,33.11
2018-04-18T13:45:40.575Z,32.42
2018-04-18T13:46:46.089Z,31.46
2018-04-18T13:47:51.629Z,32.35
2018-04-18T13:48:57.149Z,31.67
2018-04-18T13:50:02.663Z,30.91
2018-04-18T13:51:08.199Z,30.52
2018-04-18T13:52:13.707Z,28.77
2018-04-18T13:53:19.227Z,29.14
2018-04-18T13:54:24.750Z,30.88
2018-04-18T13:55:30.299Z,30.87
2018-04-18T13:56:35.793Z,31.45
2018-04-18T13:57:41.324Z,31.45
2018-04-18T13:58:46.845Z,31.63
2018-04-18T13:59:52.374Z,32.89
2018-04-18T14:00:57.884Z,33.07
2018-04-18T14:02:03.407Z,32.68
2018-04-18T14:03:08.931Z,32.78